Map

Track Data

SID SEASON NUMBER BASIN SUBBASIN NAME ISO_TIME NATURE LAT LON WMO_WIND WMO_PRES WMO_AGENCY TRACK_TYPE DIST2LAND LANDFALL IFLAG USA_AGENCY USA_ATCF_ID USA_LAT USA_LON USA_RECORD USA_STATUS USA_WIND USA_PRES USA_SSHS USA_R34_NE USA_R34_SE USA_R34_SW USA_R34_NW USA_R50_NE USA_R50_SE USA_R50_SW USA_R50_NW USA_R64_NE USA_R64_SE USA_R64_SW USA_R64_NW USA_POCI USA_ROCI USA_RMW USA_EYE TOKYO_LAT TOKYO_LON TOKYO_GRADE TOKYO_WIND TOKYO_PRES TOKYO_R50_DIR TOKYO_R50_LONG TOKYO_R50_SHORT TOKYO_R30_DIR TOKYO_R30_LONG TOKYO_R30_SHORT TOKYO_LAND CMA_LAT CMA_LON CMA_CAT CMA_WIND CMA_PRES HKO_LAT HKO_LON HKO_CAT HKO_WIND HKO_PRES NEWDELHI_LAT NEWDELHI_LON NEWDELHI_GRADE NEWDELHI_WIND NEWDELHI_PRES NEWDELHI_CI NEWDELHI_DP NEWDELHI_POCI REUNION_LAT REUNION_LON REUNION_TYPE REUNION_WIND REUNION_PRES REUNION_TNUM REUNION_CI REUNION_RMW REUNION_R34_NE REUNION_R34_SE REUNION_R34_SW REUNION_R34_NW REUNION_R50_NE REUNION_R50_SE REUNION_R50_SW REUNION_R50_NW REUNION_R64_NE REUNION_R64_SE REUNION_R64_SW REUNION_R64_NW BOM_LAT BOM_LON BOM_TYPE BOM_WIND BOM_PRES BOM_TNUM BOM_CI BOM_RMW BOM_R34_NE BOM_R34_SE BOM_R34_SW BOM_R34_NW BOM_R50_NE BOM_R50_SE BOM_R50_SW BOM_R50_NW BOM_R64_NE BOM_R64_SE BOM_R64_SW BOM_R64_NW BOM_ROCI BOM_POCI BOM_EYE BOM_POS_METHOD BOM_PRES_METHOD NADI_LAT NADI_LON NADI_CAT NADI_WIND NADI_PRES WELLINGTON_LAT WELLINGTON_LON WELLINGTON_WIND WELLINGTON_PRES DS824_LAT DS824_LON DS824_STAGE DS824_WIND DS824_PRES TD9636_LAT TD9636_LON TD9636_STAGE TD9636_WIND TD9636_PRES TD9635_LAT TD9635_LON TD9635_WIND TD9635_PRES TD9635_ROCI NEUMANN_LAT NEUMANN_LON NEUMANN_CLASS NEUMANN_WIND NEUMANN_PRES MLC_LAT MLC_LON MLC_CLASS MLC_WIND MLC_PRES USA_GUST BOM_GUST BOM_GUST_PER REUNION_GUST REUNION_GUST_PER USA_SEAHGT USA_SEARAD_NE USA_SEARAD_SE USA_SEARAD_SW USA_SEARAD_NW STORM_SPEED STORM_DIR
1924268N11338 1924 36 NA NA NOT_NAMED 1924-09-24 00:00:00 TS 11.3000 -22.2000 25 hurdat_atl main 600 600 O_____________ hurdat_atl AL071924 11.3000 -22.2000 TD 25 -1 14 274
1924268N11338 1924 36 NA NA NOT_NAMED 1924-09-24 03:00:00 TS 11.3528 -22.8999 main 673 673 P_____________ AL071924 11.3528 -22.8999 TD 25 -1 14 274
1924268N11338 1924 36 NA NA NOT_NAMED 1924-09-24 06:00:00 TS 11.4000 -23.6000 25 hurdat_atl main 748 748 O_____________ hurdat_atl AL071924 11.4000 -23.6000 TD 25 -1 14 274
1924268N11338 1924 36 NA NA NOT_NAMED 1924-09-24 09:00:00 TS 11.4423 -24.3001 main 824 824 P_____________ AL071924 11.4423 -24.3001 TD 25 -1 14 274
1924268N11338 1924 36 NA NA NOT_NAMED 1924-09-24 12:00:00 TS 11.5000 -25.0000 25 hurdat_atl main 888 888 O_____________ hurdat_atl AL071924 11.5000 -25.0000 TD 25 -1 14 277
1924268N11338 1924 36 NA NA NOT_NAMED 1924-09-24 15:00:00 TS 11.5998 -25.6999 main 953 953 P_____________ AL071924 11.5998 -25.6999 TD 25 -1 14 278
1924268N11338 1924 36 NA NA NOT_NAMED 1924-09-24 18:00:00 TS 11.7000 -26.4000 25 hurdat_atl main 1020 1020 O_____________ hurdat_atl AL071924 11.7000 -26.4000 TD 25 -1 14 277
1924268N11338 1924 36 NA NA NOT_NAMED 1924-09-24 21:00:00 TS 11.7573 -27.1001 main 1089 1089 P_____________ AL071924 11.7573 -27.1001 TD 27 -1 14 274
1924268N11338 1924 36 NA NA NOT_NAMED 1924-09-25 00:00:00 TS 11.8000 -27.8000 30 hurdat_atl main 1161 1161 O_____________ hurdat_atl AL071924 11.8000 -27.8000 TD 30 -1 14 274
1924268N11338 1924 36 NA NA NOT_NAMED 1924-09-25 03:00:00 TS 11.8499 -28.5075 main 1234 1231 P_____________ AL071924 11.8499 -28.5075 TD 30 -1 14 274
1924268N11338 1924 36 NA NA NOT_NAMED 1924-09-25 06:00:00 TS 11.9000 -29.2000 30 hurdat_atl main 1304 1304 O_____________ hurdat_atl AL071924 11.9000 -29.2000 TD 30 -1 13 274
1924268N11338 1924 36 NA NA NOT_NAMED 1924-09-25 09:00:00 TS 11.9498 -29.8575 main 1378 1375 P_____________ AL071924 11.9498 -29.8575 TD 30 -1 13 274
1924268N11338 1924 36 NA NA NOT_NAMED 1924-09-25 12:00:00 TS 12.0000 -30.5000 30 hurdat_atl main 1439 1439 O_____________ hurdat_atl AL071924 12.0000 -30.5000 TD 30 -1 13 275
1924268N11338 1924 36 NA NA NOT_NAMED 1924-09-25 15:00:00 TS 12.0498 -31.1425 main 1502 1502 P_____________ AL071924 12.0498 -31.1425 TD 30 -1 13 274
1924268N11338 1924 36 NA NA NOT_NAMED 1924-09-25 18:00:00 TS 12.1000 -31.8000 30 hurdat_atl main 1574 1574 O_____________ hurdat_atl AL071924 12.1000 -31.8000 TD 30 -1 13 274
1924268N11338 1924 36 NA NA NOT_NAMED 1924-09-25 21:00:00 TS 12.1499 -32.4925 main 1648 1646 P_____________ AL071924 12.1499 -32.4925 TD 32 -1 14 274
1924268N11338 1924 36 NA NA NOT_NAMED 1924-09-26 00:00:00 TS 12.2000 -33.2000 35 hurdat_atl main 1721 1721 O_____________ hurdat_atl AL071924 12.2000 -33.2000 TS 35 0 14 274
1924268N11338 1924 36 NA NA NOT_NAMED 1924-09-26 03:00:00 TS 12.2423 -33.9001 main 1796 1796 P_____________ AL071924 12.2423 -33.9001 TS 35 0 14 274
1924268N11338 1924 36 NA NA NOT_NAMED 1924-09-26 06:00:00 TS 12.3000 -34.6000 35 hurdat_atl main 1797 1783 O_____________ hurdat_atl AL071924 12.3000 -34.6000 TS 35 0 14 276
1924268N11338 1924 36 NA NA NOT_NAMED 1924-09-26 09:00:00 TS 12.3923 -35.2925 main 1785 1775 P_____________ AL071924 12.3923 -35.2925 TS 35 0 14 278
1924268N11338 1924 36 NA NA NOT_NAMED 1924-09-26 12:00:00 TS 12.5000 -36.0000 35 hurdat_atl main 1775 1768 O_____________ hurdat_atl AL071924 12.5000 -36.0000 TS 35 0 14 278
1924268N11338 1924 36 NA NA NOT_NAMED 1924-09-26 15:00:00 TS 12.5999 -36.7426 main 1770 1762 P_____________ AL071924 12.5999 -36.7426 TS 35 0 15 278
1924268N11338 1924 36 NA NA NOT_NAMED 1924-09-26 18:00:00 TS 12.7000 -37.5000 35 hurdat_atl main 1766 1726 O_____________ hurdat_atl AL071924 12.7000 -37.5000 TS 35 0 15 277
1924268N11338 1924 36 NA NA NOT_NAMED 1924-09-26 21:00:00 TS 12.7923 -38.2501 main 1717 1660 P_____________ AL071924 12.7923 -38.2501 TS 37 0 15 278
1924268N11338 1924 36 NA NA NOT_NAMED 1924-09-27 00:00:00 TS 12.9000 -39.0000 40 hurdat_atl main 1660 1604 O_____________ hurdat_atl AL071924 12.9000 -39.0000 TS 40 0 15 280
1924268N11338 1924 36 NA NA NOT_NAMED 1924-09-27 03:00:00 TS 13.0423 -39.7500 main 1596 1549 P_____________ AL071924 13.0423 -39.7500 TS 40 0 15 282
1924268N11338 1924 36 NA NA NOT_NAMED 1924-09-27 06:00:00 TS 13.2000 -40.5000 40 hurdat_atl main 1549 1499 O_____________ hurdat_atl AL071924 13.2000 -40.5000 TS 40 0 15 282
1924268N11338 1924 36 NA NA NOT_NAMED 1924-09-27 09:00:00 TS 13.3498 -41.2576 main 1491 1450 P_____________ AL071924 13.3498 -41.2576 TS 40 0 15 282
1924268N11338 1924 36 NA NA NOT_NAMED 1924-09-27 12:00:00 TS 13.5000 -42.0000 40 hurdat_atl main 1450 1406 O_____________ hurdat_atl AL071924 13.5000 -42.0000 TS 40 0 14 282
1924268N11338 1924 36 NA NA NOT_NAMED 1924-09-27 15:00:00 TS 13.6497 -42.7076 main 1406 1372 P_____________ AL071924 13.6497 -42.7076 TS 40 0 14 282
1924268N11338 1924 36 NA NA NOT_NAMED 1924-09-27 18:00:00 TS 13.8000 -43.4000 40 hurdat_atl main 1372 1334 O_____________ hurdat_atl AL071924 13.8000 -43.4000 TS 40 0 14 282
1924268N11338 1924 36 NA NA NOT_NAMED 1924-09-27 21:00:00 TS 13.9423 -44.1002 main 1334 1309 P_____________ AL071924 13.9423 -44.1002 TS 40 0 14 282
1924268N11338 1924 36 NA NA NOT_NAMED 1924-09-28 00:00:00 TS 14.1000 -44.8000 40 hurdat_atl main 1309 1280 O_____________ hurdat_atl AL071924 14.1000 -44.8000 TS 40 0 14 284
1924268N11338 1924 36 NA NA NOT_NAMED 1924-09-28 03:00:00 TS 14.2849 -45.5076 main 1282 1255 P_____________ AL071924 14.2849 -45.5076 TS 40 0 14 286
1924268N11338 1924 36 NA NA NOT_NAMED 1924-09-28 06:00:00 TS 14.5000 -46.2000 40 hurdat_atl main 1255 1239 O_____________ hurdat_atl AL071924 14.5000 -46.2000 TS 40 0 14 288
1924268N11338 1924 36 NA NA NOT_NAMED 1924-09-28 09:00:00 TS 14.7198 -46.8653 main 1233 1226 P_____________ AL071924 14.7198 -46.8653 TS 42 0 14 292
1924268N11338 1924 36 NA NA NOT_NAMED 1924-09-28 12:00:00 TS 15.0000 -47.5000 45 hurdat_atl main 1231 1226 O_____________ hurdat_atl AL071924 15.0000 -47.5000 TS 45 0 14 298
1924268N11338 1924 36 NA NA NOT_NAMED 1924-09-28 15:00:00 TS 15.3698 -48.1076 main 1242 1237 P_____________ AL071924 15.3698 -48.1076 TS 45 0 14 305
1924268N11338 1924 36 NA NA NOT_NAMED 1924-09-28 18:00:00 TS 15.8000 -48.7000 45 hurdat_atl main 1258 1254 O_____________ hurdat_atl AL071924 15.8000 -48.7000 TS 45 0 14 307
1924268N11338 1924 36 NA NA NOT_NAMED 1924-09-28 21:00:00 TS 16.2423 -49.3002 main 1271 1271 P_____________ AL071924 16.2423 -49.3002 TS 45 0 15 308
1924268N11338 1924 36 NA NA NOT_NAMED 1924-09-29 00:00:00 TS 16.7000 -49.9000 45 hurdat_atl main 1297 1297 O_____________ hurdat_atl AL071924 16.7000 -49.9000 TS 45 0 15 308
1924268N11338 1924 36 NA NA NOT_NAMED 1924-09-29 03:00:00 TS 17.1500 -50.5226 main 1327 1317 P_____________ AL071924 17.1500 -50.5226 TS 45 0 15 308
1924268N11338 1924 36 NA NA NOT_NAMED 1924-09-29 06:00:00 TS 17.6000 -51.1000 45 hurdat_atl main 1317 1300 O_____________ hurdat_atl AL071924 17.6000 -51.1000 TS 45 0 14 312
1924268N11338 1924 36 NA NA NOT_NAMED 1924-09-29 09:00:00 TS 18.0574 -51.5952 main 1307 1297 P_____________ AL071924 18.0574 -51.5952 TS 42 0 12 316
1924268N11338 1924 36 NA NA NOT_NAMED 1924-09-29 12:00:00 TS 18.5000 -52.0000 40 hurdat_atl main 1303 1302 O_____________ hurdat_atl AL071924 18.5000 -52.0000 TS 40 0 11 321
1924268N11338 1924 36 NA NA NOT_NAMED 1924-09-29 15:00:00 TS 18.9223 -52.3302 main 1310 1310 P_____________ AL071924 18.9223 -52.3302 TS 40 0 10 325
1924268N11338 1924 36 NA NA NOT_NAMED 1924-09-29 18:00:00 TS 19.3000 -52.6000 40 hurdat_atl main 1318 1318 O_____________ hurdat_atl AL071924 19.3000 -52.6000 TS 40 0 9 325
1924268N11338 1924 36 NA NA NOT_NAMED 1924-09-29 21:00:00 TS 19.6224 -52.8577 main 1321 1321 P_____________ AL071924 19.6224 -52.8577 TS 37 0 8 322
1924268N11338 1924 36 NA NA NOT_NAMED 1924-09-30 00:00:00 TS 19.9000 -53.1000 35 hurdat_atl main 1323 1304 O_____________ hurdat_atl AL071924 19.9000 -53.1000 TS 35 0 7 318
1924268N11338 1924 36 NA NA NOT_NAMED 1924-09-30 03:00:00 TS 20.1500 -53.3576 main 1295 1277 P_____________ AL071924 20.1500 -53.3576 TS 35 0 7 317
1924268N11338 1924 36 NA NA NOT_NAMED 1924-09-30 06:00:00 TS 20.4000 -53.6000 35 hurdat_atl main 1277 1260 O_____________ hurdat_atl AL071924 20.4000 -53.6000 TS 35 0 7 321
1924268N11338 1924 36 NA NA NOT_NAMED 1924-09-30 09:00:00 TS 20.6700 -53.8077 main 1262 1246 P_____________ AL071924 20.6700 -53.8077 TS 35 0 7 328
1924268N11338 1924 36 NA NA NOT_NAMED 1924-09-30 12:00:00 TS 21.0000 -54.0000 35 hurdat_atl main 1248 1235 O_____________ hurdat_atl AL071924 21.0000 -54.0000 TS 35 0 8 333
1924268N11338 1924 36 NA NA NOT_NAMED 1924-09-30 15:00:00 TS 21.4050 -54.2075 main 1237 1229 P_____________ AL071924 21.4050 -54.2075 TS 35 0 10 338
1924268N11338 1924 36 NA NA NOT_NAMED 1924-09-30 18:00:00 TS 21.9000 -54.4000 35 hurdat_atl main 1232 1229 O_____________ hurdat_atl AL071924 21.9000 -54.4000 TS 35 0 11 343
1924268N11338 1924 36 NA NA NOT_NAMED 1924-09-30 21:00:00 TS 22.4550 -54.5651 main 1233 1233 P_____________ AL071924 22.4550 -54.5651 TS 35 0 12 347
1924268N11338 1924 36 NA NA NOT_NAMED 1924-10-01 00:00:00 TS 23.1000 -54.7000 35 hurdat_atl main 1248 1248 O_____________ hurdat_atl AL071924 23.1000 -54.7000 TS 35 0 14 350
1924268N11338 1924 36 NA NA NOT_NAMED 1924-10-01 03:00:00 TS 23.8350 -54.8150 main 1271 1271 P_____________ AL071924 23.8350 -54.8150 TS 35 0 15 353
1924268N11338 1924 36 NA NA NOT_NAMED 1924-10-01 06:00:00 TS 24.6000 -54.9000 35 hurdat_atl main 1305 1305 O_____________ hurdat_atl AL071924 24.6000 -54.9000 TS 35 0 15 355
1924268N11338 1924 36 NA NA NOT_NAMED 1924-10-01 09:00:00 TS 25.3225 -54.9651 main 1337 1337 P_____________ AL071924 25.3225 -54.9651 TS 35 0 14 356
1924268N11338 1924 36 NA NA NOT_NAMED 1924-10-01 12:00:00 TS 26.0000 -55.0000 35 hurdat_atl main 1381 1381 O_____________ hurdat_atl AL071924 26.0000 -55.0000 TS 35 0 13 358
1924268N11338 1924 36 NA NA NOT_NAMED 1924-10-01 15:00:00 TS 26.6300 -55.0076 main 1421 1421 P_____________ AL071924 26.6300 -55.0076 TS 35 0 12 1
1924268N11338 1924 36 NA NA NOT_NAMED 1924-10-01 18:00:00 TS 27.2000 -55.0000 35 hurdat_atl main 1463 1463 O_____________ hurdat_atl AL071924 27.2000 -55.0000 TS 35 0 11 0
1924268N11338 1924 36 NA NA NOT_NAMED 1924-10-01 21:00:00 TS 27.7300 -55.0000 main 1500 1500 P_____________ AL071924 27.7300 -55.0000 TS 37 0 10 1
1924268N11338 1924 36 NA NA NOT_NAMED 1924-10-02 00:00:00 TS 28.2000 -55.0000 40 hurdat_atl main 1538 1538 O_____________ hurdat_atl AL071924 28.2000 -55.0000 TS 40 0 9 2
1924268N11338 1924 36 NA NA NOT_NAMED 1924-10-02 03:00:00 TS 28.6000 -55.0000 main 1568 1568 P_____________ AL071924 28.6000 -55.0000 TS 40 0 8 1
1924268N11338 1924 36 NA NA NOT_NAMED 1924-10-02 06:00:00 TS 29.0000 -55.0000 40 hurdat_atl main 1600 1600 O_____________ hurdat_atl AL071924 29.0000 -55.0000 TS 40 0 9 0
1924268N11338 1924 36 NA NA NOT_NAMED 1924-10-02 09:00:00 TS 29.4625 -55.0000 main 1640 1640 P_____________ AL071924 29.4625 -55.0000 TS 42 0 10 1
1924268N11338 1924 36 NA NA NOT_NAMED 1924-10-02 12:00:00 TS 30.0000 -55.0000 45 hurdat_atl main 1681 1681 O_____________ hurdat_atl AL071924 30.0000 -55.0000 TS 45 0 12 1
1924268N11338 1924 36 NA NA NOT_NAMED 1924-10-02 15:00:00 TS 30.6125 -55.0000 main 1698 1631 P_____________ AL071924 30.6125 -55.0000 TS 45 0 13 1
1924268N11338 1924 36 NA NA NOT_NAMED 1924-10-02 18:00:00 TS 31.3000 -55.0000 45 hurdat_atl main 1631 1560 O_____________ hurdat_atl AL071924 31.3000 -55.0000 TS 45 0 14 359
1924268N11338 1924 36 NA NA NOT_NAMED 1924-10-02 21:00:00 TS 32.0200 -55.0073 main 1560 1475 P_____________ AL071924 32.0200 -55.0073 TS 45 0 15 0
1924268N11338 1924 36 NA NA NOT_NAMED 1924-10-03 00:00:00 TS 32.8000 -55.0000 45 hurdat_atl main 1475 1391 O_____________ hurdat_atl AL071924 32.8000 -55.0000 TS 45 0 16 0
1924268N11338 1924 36 NA NA NOT_NAMED 1924-10-03 03:00:00 TS 33.6499 -54.9795 main 1391 1301 P_____________ AL071924 33.6499 -54.9795 TS 45 0 17 3
1924268N11338 1924 36 NA NA NOT_NAMED 1924-10-03 06:00:00 TS 34.5000 -54.9000 45 hurdat_atl main 1301 1233 O_____________ hurdat_atl AL071924 34.5000 -54.9000 TS 45 0 16 6
1924268N11338 1924 36 NA NA NOT_NAMED 1924-10-03 09:00:00 TS 35.2723 -54.7519 main 1222 1163 P_____________ AL071924 35.2723 -54.7519 TS 45 0 15 12
1924268N11338 1924 36 NA NA NOT_NAMED 1924-10-03 12:00:00 ET 36.0000 -54.5000 45 hurdat_atl main 1163 1102 O_____________ hurdat_atl AL071924 36.0000 -54.5000 EX 45 -4 15 18
1924268N11338 1924 36 NA NA NOT_NAMED 1924-10-03 15:00:00 ET 36.7073 -54.1592 main 1102 1023 P_____________ AL071924 36.7073 -54.1592 EX 45 -4 15 25
1924268N11338 1924 36 NA NA NOT_NAMED 1924-10-03 18:00:00 ET 37.4000 -53.7000 45 hurdat_atl main 1023 945 O_____________ hurdat_atl AL071924 37.4000 -53.7000 EX 45 -4 16 30
1924268N11338 1924 36 NA NA NOT_NAMED 1924-10-03 21:00:00 ET 38.0997 -53.1515 main 945 869 P_____________ AL071924 38.0997 -53.1515 EX 45 -4 17 34
1924268N11338 1924 36 NA NA NOT_NAMED 1924-10-04 00:00:00 ET 38.8000 -52.5000 45 hurdat_atl main 869 797 O_____________ hurdat_atl AL071924 38.8000 -52.5000 EX 45 -4 18 37
1924268N11338 1924 36 NA NA NOT_NAMED 1924-10-04 03:00:00 ET 39.5066 -51.8083 main 797 733 P_____________ AL071924 39.5066 -51.8083 EX 45 -4 18 40
1924268N11338 1924 36 NA NA NOT_NAMED 1924-10-04 06:00:00 ET 40.2000 -51.0000 45 hurdat_atl main 733 687 O_____________ hurdat_atl AL071924 40.2000 -51.0000 EX 45 -4 19 45
1924268N11338 1924 36 NA NA NOT_NAMED 1924-10-04 09:00:00 ET 40.8573 -50.0436 main 683 653 P_____________ AL071924 40.8573 -50.0436 EX 45 -4 20 49
1924268N11338 1924 36 NA NA NOT_NAMED 1924-10-04 12:00:00 ET 41.5000 -49.0000 45 hurdat_atl main 657 641 O_____________ hurdat_atl AL071924 41.5000 -49.0000 EX 45 -4 20 51
1924268N11338 1924 36 NA NA NOT_NAMED 1924-10-04 15:00:00 ET 42.1416 -47.9624 main 647 642 P_____________ AL071924 42.1416 -47.9624 EX 45 -4 20 50
1924268N11338 1924 36 NA NA NOT_NAMED 1924-10-04 18:00:00 ET 42.8000 -46.9000 45 hurdat_atl main 651 648 O_____________ hurdat_atl AL071924 42.8000 -46.9000 EX 45 -4 21 49
1924268N11338 1924 36 NA NA NOT_NAMED 1924-10-04 21:00:00 ET 43.4915 -45.8128 main 670 670 P_____________ AL071924 43.4915 -45.8128 EX 47 -4 21 49
1924268N11338 1924 36 NA NA NOT_NAMED 1924-10-05 00:00:00 ET 44.2000 -44.7000 50 hurdat_atl main 705 705 O_____________ hurdat_atl AL071924 44.2000 -44.7000 EX 50 -4 21 49
1924268N11338 1924 36 NA NA NOT_NAMED 1924-10-05 03:00:00 ET 44.8989 -43.5622 main 747 747 P_____________ AL071924 44.8989 -43.5622 EX 50 -4 21 49
1924268N11338 1924 36 NA NA NOT_NAMED 1924-10-05 06:00:00 ET 45.6000 -42.4000 50 hurdat_atl main 804 804 O_____________ hurdat_atl AL071924 45.6000 -42.4000 EX 50 -4 22 50
1924268N11338 1924 36 NA NA NOT_NAMED 1924-10-05 09:00:00 ET 46.2913 -41.2114 main 871 871 P_____________ AL071924 46.2913 -41.2114 EX 50 -4 22 50
1924268N11338 1924 36 NA NA NOT_NAMED 1924-10-05 12:00:00 ET 47.0000 -40.0000 50 hurdat_atl main 947 947 O_____________ hurdat_atl AL071924 47.0000 -40.0000 EX 50 -4 22 49
1924268N11338 1924 36 NA NA NOT_NAMED 1924-10-05 15:00:00 ET 47.7427 -38.7654 main 1029 1029 P_____________ AL071924 47.7427 -38.7654 EX 50 -4 22 48
1924268N11338 1924 36 NA NA NOT_NAMED 1924-10-05 18:00:00 ET 48.5000 -37.5000 50 hurdat_atl main 1122 O_____________ hurdat_atl AL071924 48.5000 -37.5000 EX 50 -4 23 48

About IBTrACS Database

This database is a web-friendly format of International Best Track Archive for Climate Stewardship (IBTrACS), a global best track data archive curated by NOAA dating back to 1842.

Updated: 2021-12-03